sensor_id;sensor_type;location;lat;lon;timestamp;P1;durP1;ratioP1;P2;durP2;ratioP2
2860;SDS011;1438;50.922;6.704;2024-01-10T00:01:45;14.23;;;7.00;;
2860;SDS011;1438;50.922;6.704;2024-01-10T00:04:11;11.93;;;7.15;;
2860;SDS011;1438;50.922;6.704;2024-01-10T00:06:38;14.02;;;6.70;;
2860;SDS011;1438;50.922;6.704;2024-01-10T00:09:04;13.20;;;7.80;;
2860;SDS011;1438;50.922;6.704;2024-01-10T00:11:30;13.13;;;7.97;;
2860;SDS011;1438;50.922;6.704;2024-01-10T00:13:56;15.35;;;8.00;;
2860;SDS011;1438;50.922;6.704;2024-01-10T00:16:25;12.80;;;6.45;;
2860;SDS011;1438;50.922;6.704;2024-01-10T00:18:51;11.60;;;6.78;;
2860;SDS011;1438;50.922;6.704;2024-01-10T00:21:17;12.05;;;7.43;;
2860;SDS011;1438;50.922;6.704;2024-01-10T00:23:43;12.48;;;6.97;;
2860;SDS011;1438;50.922;6.704;2024-01-10T00:26:09;15.52;;;8.25;;
2860;SDS011;1438;50.922;6.704;2024-01-10T00:28:35;12.27;;;7.60;;
2860;SDS011;1438;50.922;6.704;2024-01-10T00:31:01;13.23;;;6.33;;
2860;SDS011;1438;50.922;6.704;2024-01-10T00:33:27;13.95;;;7.32;;
2860;SDS011;1438;50.922;6.704;2024-01-10T00:35:53;15.30;;;7.25;;
2860;SDS011;1438;50.922;6.704;2024-01-10T00:38:19;15.03;;;8.33;;
2860;SDS011;1438;50.922;6.704;2024-01-10T00:40:45;12.68;;;7.03;;
2860;SDS011;1438;50.922;6.704;2024-01-10T00:43:11;13.35;;;6.85;;
2860;SDS011;1438;50.922;6.704;2024-01-10T00:45:37;14.77;;;7.88;;
2860;SDS011;1438;50.922;6.704;2024-01-10T00:48:03;11.60;;;7.13;;
2860;SDS011;1438;50.922;6.704;2024-01-10T00:50:29;17.65;;;10.43;;
2860;SDS011;1438;50.922;6.704;2024-01-10T00:52:55;13.93;;;7.03;;
2860;SDS011;1438;50.922;6.704;2024-01-10T00:55:21;14.80;;;8.05;;
2860;SDS011;1438;50.922;6.704;2024-01-10T00:57:47;12.50;;;7.00;;
2860;SDS011;1438;50.922;6.704;2024-01-10T01:00:13;17.52;;;7.82;;
2860;SDS011;1438;50.922;6.704;2024-01-10T01:02:39;13.15;;;7.68;;
2860;SDS011;1438;50.922;6.704;2024-01-10T01:05:06;15.98;;;7.68;;
2860;SDS011;1438;50.922;6.704;2024-01-10T01:07:32;16.50;;;6.70;;
2860;SDS011;1438;50.922;6.704;2024-01-10T01:09:58;15.27;;;7.90;;
2860;SDS011;1438;50.922;6.704;2024-01-10T01:12:24;12.50;;;7.70;;
2860;SDS011;1438;50.922;6.704;2024-01-10T01:14:50;16.90;;;10.25;;
2860;SDS011;1438;50.922;6.704;2024-01-10T01:17:16;14.43;;;9.45;;
2860;SDS011;1438;50.922;6.704;2024-01-10T01:19:42;14.23;;;7.05;;
2860;SDS011;1438;50.922;6.704;2024-01-10T01:22:08;18.65;;;11.63;;
2860;SDS011;1438;50.922;6.704;2024-01-10T01:24:34;14.00;;;8.02;;
2860;SDS011;1438;50.922;6.704;2024-01-10T01:27:00;16.55;;;8.55;;
2860;SDS011;1438;50.922;6.704;2024-01-10T01:29:26;21.60;;;8.55;;
2860;SDS011;1438;50.922;6.704;2024-01-10T01:31:54;14.30;;;7.32;;
2860;SDS011;1438;50.922;6.704;2024-01-10T01:34:19;9.82;;;6.50;;
2860;SDS011;1438;50.922;6.704;2024-01-10T01:36:45;15.50;;;5.97;;
2860;SDS011;1438;50.922;6.704;2024-01-10T01:39:11;13.90;;;7.43;;
2860;SDS011;1438;50.922;6.704;2024-01-10T01:41:38;14.52;;;7.30;;
2860;SDS011;1438;50.922;6.704;2024-01-10T01:44:04;11.13;;;6.40;;
2860;SDS011;1438;50.922;6.704;2024-01-10T01:46:31;12.32;;;6.38;;
2860;SDS011;1438;50.922;6.704;2024-01-10T01:48:57;13.38;;;6.50;;
2860;SDS011;1438;50.922;6.704;2024-01-10T01:51:23;12.15;;;7.28;;
2860;SDS011;1438;50.922;6.704;2024-01-10T01:53:49;16.98;;;6.63;;
2860;SDS011;1438;50.922;6.704;2024-01-10T01:56:16;16.75;;;8.90;;
2860;SDS011;1438;50.922;6.704;2024-01-10T01:58:42;16.98;;;7.75;;
2860;SDS011;1438;50.922;6.704;2024-01-10T02:01:09;13.30;;;7.18;;
2860;SDS011;1438;50.922;6.704;2024-01-10T02:03:36;14.45;;;7.32;;
2860;SDS011;1438;50.922;6.704;2024-01-10T02:06:02;12.48;;;6.50;;
2860;SDS011;1438;50.922;6.704;2024-01-10T02:08:29;17.83;;;7.97;;
2860;SDS011;1438;50.922;6.704;2024-01-10T02:10:56;13.38;;;7.03;;
2860;SDS011;1438;50.922;6.704;2024-01-10T02:13:22;15.55;;;7.13;;
2860;SDS011;1438;50.922;6.704;2024-01-10T02:15:49;12.50;;;8.27;;
2860;SDS011;1438;50.922;6.704;2024-01-10T02:18:15;13.50;;;8.27;;
2860;SDS011;1438;50.922;6.704;2024-01-10T02:20:44;15.55;;;8.45;;
2860;SDS011;1438;50.922;6.704;2024-01-10T02:23:10;15.20;;;8.77;;
2860;SDS011;1438;50.922;6.704;2024-01-10T02:25:37;14.25;;;7.65;;
2860;SDS011;1438;50.922;6.704;2024-01-10T02:28:03;12.98;;;6.75;;
2860;SDS011;1438;50.922;6.704;2024-01-10T02:30:29;14.55;;;6.60;;
2860;SDS011;1438;50.922;6.704;2024-01-10T02:32:55;11.07;;;7.30;;
2860;SDS011;1438;50.922;6.704;2024-01-10T02:35:21;12.98;;;7.40;;
2860;SDS011;1438;50.922;6.704;2024-01-10T02:37:47;12.43;;;6.38;;
2860;SDS011;1438;50.922;6.704;2024-01-10T02:40:16;12.90;;;6.95;;
2860;SDS011;1438;50.922;6.704;2024-01-10T02:42:42;15.30;;;6.18;;
2860;SDS011;1438;50.922;6.704;2024-01-10T02:45:08;14.60;;;7.60;;
2860;SDS011;1438;50.922;6.704;2024-01-10T02:47:35;11.57;;;6.95;;
2860;SDS011;1438;50.922;6.704;2024-01-10T02:50:02;15.85;;;7.03;;
2860;SDS011;1438;50.922;6.704;2024-01-10T02:52:28;10.70;;;6.35;;
2860;SDS011;1438;50.922;6.704;2024-01-10T02:54:54;11.00;;;6.10;;
2860;SDS011;1438;50.922;6.704;2024-01-10T02:57:20;11.23;;;7.57;;
2860;SDS011;1438;50.922;6.704;2024-01-10T02:59:46;12.43;;;6.72;;
2860;SDS011;1438;50.922;6.704;2024-01-10T03:02:12;12.70;;;6.70;;
2860;SDS011;1438;50.922;6.704;2024-01-10T03:04:38;14.20;;;7.13;;
2860;SDS011;1438;50.922;6.704;2024-01-10T03:07:04;11.00;;;6.68;;
2860;SDS011;1438;50.922;6.704;2024-01-10T03:09:30;11.93;;;7.78;;
2860;SDS011;1438;50.922;6.704;2024-01-10T03:11:56;13.63;;;6.93;;
2860;SDS011;1438;50.922;6.704;2024-01-10T03:14:22;11.25;;;5.97;;
2860;SDS011;1438;50.922;6.704;2024-01-10T03:16:48;11.40;;;7.70;;
2860;SDS011;1438;50.922;6.704;2024-01-10T03:19:14;13.02;;;6.32;;
2860;SDS011;1438;50.922;6.704;2024-01-10T03:21:40;12.32;;;6.63;;
2860;SDS011;1438;50.922;6.704;2024-01-10T03:24:06;13.85;;;7.47;;
2860;SDS011;1438;50.922;6.704;2024-01-10T03:26:33;11.85;;;6.60;;
2860;SDS011;1438;50.922;6.704;2024-01-10T03:28:59;10.52;;;5.88;;
2860;SDS011;1438;50.922;6.704;2024-01-10T03:31:26;11.77;;;7.25;;
2860;SDS011;1438;50.922;6.704;2024-01-10T03:33:52;12.77;;;7.30;;
2860;SDS011;1438;50.922;6.704;2024-01-10T03:36:18;12.30;;;6.60;;
2860;SDS011;1438;50.922;6.704;2024-01-10T03:38:44;10.48;;;6.97;;
2860;SDS011;1438;50.922;6.704;2024-01-10T03:41:13;8.48;;;5.65;;
2860;SDS011;1438;50.922;6.704;2024-01-10T03:43:40;13.13;;;7.00;;
2860;SDS011;1438;50.922;6.704;2024-01-10T03:46:06;12.90;;;6.10;;
2860;SDS011;1438;50.922;6.704;2024-01-10T03:48:32;12.10;;;7.78;;
2860;SDS011;1438;50.922;6.704;2024-01-10T03:50:58;13.20;;;7.50;;
2860;SDS011;1438;50.922;6.704;2024-01-10T03:53:24;18.08;;;7.70;;
2860;SDS011;1438;50.922;6.704;2024-01-10T03:55:50;15.88;;;8.27;;
2860;SDS011;1438;50.922;6.704;2024-01-10T03:58:16;16.38;;;7.70;;
2860;SDS011;1438;50.922;6.704;2024-01-10T04:00:42;14.35;;;8.20;;
2860;SDS011;1438;50.922;6.704;2024-01-10T04:03:08;10.40;;;6.43;;
2860;SDS011;1438;50.922;6.704;2024-01-10T04:05:34;11.30;;;7.70;;
2860;SDS011;1438;50.922;6.704;2024-01-10T04:08:00;12.95;;;8.48;;
2860;SDS011;1438;50.922;6.704;2024-01-10T04:10:26;14.23;;;7.03;;
2860;SDS011;1438;50.922;6.704;2024-01-10T04:12:52;13.57;;;7.45;;
2860;SDS011;1438;50.922;6.704;2024-01-10T04:15:18;13.23;;;6.75;;
2860;SDS011;1438;50.922;6.704;2024-01-10T04:17:44;15.85;;;7.13;;
2860;SDS011;1438;50.922;6.704;2024-01-10T04:20:10;12.20;;;7.85;;
2860;SDS011;1438;50.922;6.704;2024-01-10T04:22:36;13.07;;;8.43;;
2860;SDS011;1438;50.922;6.704;2024-01-10T04:25:03;21.08;;;8.60;;
2860;SDS011;1438;50.922;6.704;2024-01-10T04:27:29;16.23;;;8.13;;
2860;SDS011;1438;50.922;6.704;2024-01-10T04:29:55;15.07;;;9.07;;
2860;SDS011;1438;50.922;6.704;2024-01-10T04:32:21;14.82;;;7.68;;
2860;SDS011;1438;50.922;6.704;2024-01-10T04:34:48;17.98;;;9.13;;
2860;SDS011;1438;50.922;6.704;2024-01-10T04:37:14;19.05;;;9.52;;
2860;SDS011;1438;50.922;6.704;2024-01-10T04:39:40;14.57;;;8.20;;
2860;SDS011;1438;50.922;6.704;2024-01-10T04:42:07;13.32;;;6.93;;
2860;SDS011;1438;50.922;6.704;2024-01-10T04:44:33;11.95;;;8.20;;
2860;SDS011;1438;50.922;6.704;2024-01-10T04:46:59;12.80;;;8.18;;
2860;SDS011;1438;50.922;6.704;2024-01-10T04:49:25;11.02;;;7.38;;
2860;SDS011;1438;50.922;6.704;2024-01-10T04:51:51;13.27;;;7.68;;
2860;SDS011;1438;50.922;6.704;2024-01-10T04:54:17;12.95;;;7.40;;
2860;SDS011;1438;50.922;6.704;2024-01-10T04:56:43;13.02;;;8.05;;
2860;SDS011;1438;50.922;6.704;2024-01-10T04:59:09;12.80;;;6.78;;
2860;SDS011;1438;50.922;6.704;2024-01-10T05:01:35;18.05;;;9.00;;
2860;SDS011;1438;50.922;6.704;2024-01-10T05:04:02;15.05;;;7.25;;
2860;SDS011;1438;50.922;6.704;2024-01-10T05:06:28;13.30;;;7.25;;
2860;SDS011;1438;50.922;6.704;2024-01-10T05:08:54;11.45;;;6.85;;
2860;SDS011;1438;50.922;6.704;2024-01-10T05:11:23;14.43;;;7.18;;
2860;SDS011;1438;50.922;6.704;2024-01-10T05:13:49;14.43;;;8.00;;
2860;SDS011;1438;50.922;6.704;2024-01-10T05:16:15;13.77;;;8.15;;
2860;SDS011;1438;50.922;6.704;2024-01-10T05:18:42;14.80;;;8.80;;
2860;SDS011;1438;50.922;6.704;2024-01-10T05:21:08;13.48;;;7.40;;
2860;SDS011;1438;50.922;6.704;2024-01-10T05:23:34;14.80;;;7.57;;
2860;SDS011;1438;50.922;6.704;2024-01-10T05:26:00;9.40;;;6.25;;
2860;SDS011;1438;50.922;6.704;2024-01-10T05:28:26;11.45;;;5.78;;
2860;SDS011;1438;50.922;6.704;2024-01-10T05:30:52;12.93;;;7.38;;
2860;SDS011;1438;50.922;6.704;2024-01-10T05:33:19;16.90;;;7.57;;
2860;SDS011;1438;50.922;6.704;2024-01-10T05:35:45;7.63;;;4.70;;
2860;SDS011;1438;50.922;6.704;2024-01-10T05:38:12;15.85;;;7.55;;
2860;SDS011;1438;50.922;6.704;2024-01-10T05:40:38;22.40;;;9.65;;
2860;SDS011;1438;50.922;6.704;2024-01-10T05:43:04;15.00;;;9.20;;
2860;SDS011;1438;50.922;6.704;2024-01-10T05:45:30;21.35;;;9.55;;
2860;SDS011;1438;50.922;6.704;2024-01-10T05:47:56;23.57;;;9.83;;
2860;SDS011;1438;50.922;6.704;2024-01-10T05:50:22;22.23;;;12.00;;
2860;SDS011;1438;50.922;6.704;2024-01-10T05:52:48;22.27;;;11.00;;
2860;SDS011;1438;50.922;6.704;2024-01-10T05:55:14;17.40;;;9.73;;
2860;SDS011;1438;50.922;6.704;2024-01-10T05:57:40;19.73;;;10.93;;
2860;SDS011;1438;50.922;6.704;2024-01-10T06:00:06;17.27;;;9.38;;
2860;SDS011;1438;50.922;6.704;2024-01-10T06:02:39;15.40;;;9.27;;
2860;SDS011;1438;50.922;6.704;2024-01-10T06:05:08;16.52;;;9.15;;
2860;SDS011;1438;50.922;6.704;2024-01-10T06:07:34;12.65;;;7.28;;
2860;SDS011;1438;50.922;6.704;2024-01-10T06:10:00;16.67;;;8.25;;
2860;SDS011;1438;50.922;6.704;2024-01-10T06:12:26;19.05;;;7.85;;
2860;SDS011;1438;50.922;6.704;2024-01-10T06:14:53;18.17;;;8.23;;
2860;SDS011;1438;50.922;6.704;2024-01-10T06:17:19;18.13;;;8.88;;
2860;SDS011;1438;50.922;6.704;2024-01-10T06:19:45;12.20;;;7.95;;
2860;SDS011;1438;50.922;6.704;2024-01-10T06:22:11;13.38;;;7.85;;
2860;SDS011;1438;50.922;6.704;2024-01-10T06:24:37;18.77;;;9.48;;
2860;SDS011;1438;50.922;6.704;2024-01-10T06:27:03;21.50;;;11.32;;
2860;SDS011;1438;50.922;6.704;2024-01-10T06:29:30;20.75;;;9.70;;
2860;SDS011;1438;50.922;6.704;2024-01-10T06:31:57;17.77;;;9.35;;
2860;SDS011;1438;50.922;6.704;2024-01-10T06:34:23;20.33;;;10.00;;
2860;SDS011;1438;50.922;6.704;2024-01-10T06:36:49;14.38;;;9.10;;
2860;SDS011;1438;50.922;6.704;2024-01-10T06:39:15;12.57;;;7.03;;
2860;SDS011;1438;50.922;6.704;2024-01-10T06:41:44;10.68;;;6.72;;
2860;SDS011;1438;50.922;6.704;2024-01-10T06:44:10;21.77;;;9.27;;
2860;SDS011;1438;50.922;6.704;2024-01-10T06:46:36;18.13;;;8.13;;
2860;SDS011;1438;50.922;6.704;2024-01-10T06:49:02;18.92;;;9.57;;
2860;SDS011;1438;50.922;6.704;2024-01-10T06:51:28;17.15;;;9.10;;
2860;SDS011;1438;50.922;6.704;2024-01-10T06:53:54;15.80;;;8.00;;
2860;SDS011;1438;50.922;6.704;2024-01-10T06:56:27;15.07;;;8.52;;
2860;SDS011;1438;50.922;6.704;2024-01-10T06:58:53;19.10;;;9.68;;
2860;SDS011;1438;50.922;6.704;2024-01-10T07:01:19;13.70;;;8.13;;
2860;SDS011;1438;50.922;6.704;2024-01-10T07:03:47;20.85;;;9.20;;
2860;SDS011;1438;50.922;6.704;2024-01-10T07:06:13;11.43;;;7.78;;
2860;SDS011;1438;50.922;6.704;2024-01-10T07:08:42;14.02;;;7.97;;
2860;SDS011;1438;50.922;6.704;2024-01-10T07:11:09;18.30;;;9.77;;
2860;SDS011;1438;50.922;6.704;2024-01-10T07:13:36;19.85;;;9.45;;
2860;SDS011;1438;50.922;6.704;2024-01-10T07:16:02;16.25;;;10.50;;
2860;SDS011;1438;50.922;6.704;2024-01-10T07:18:28;20.25;;;10.18;;
2860;SDS011;1438;50.922;6.704;2024-01-10T07:20:55;15.82;;;8.63;;
2860;SDS011;1438;50.922;6.704;2024-01-10T07:23:21;19.38;;;10.52;;
2860;SDS011;1438;50.922;6.704;2024-01-10T07:25:50;23.38;;;11.45;;
2860;SDS011;1438;50.922;6.704;2024-01-10T07:28:16;15.95;;;10.25;;
2860;SDS011;1438;50.922;6.704;2024-01-10T07:30:43;20.20;;;9.68;;
2860;SDS011;1438;50.922;6.704;2024-01-10T07:33:09;20.20;;;10.20;;
2860;SDS011;1438;50.922;6.704;2024-01-10T07:35:35;27.98;;;11.55;;
2860;SDS011;1438;50.922;6.704;2024-01-10T07:38:03;20.65;;;10.00;;
2860;SDS011;1438;50.922;6.704;2024-01-10T07:40:29;22.75;;;10.70;;
2860;SDS011;1438;50.922;6.704;2024-01-10T07:42:55;19.35;;;10.70;;
2860;SDS011;1438;50.922;6.704;2024-01-10T07:45:21;18.25;;;10.23;;
2860;SDS011;1438;50.922;6.704;2024-01-10T07:47:47;22.98;;;13.13;;
2860;SDS011;1438;50.922;6.704;2024-01-10T07:50:13;27.02;;;13.15;;
2860;SDS011;1438;50.922;6.704;2024-01-10T07:52:40;23.42;;;12.40;;
2860;SDS011;1438;50.922;6.704;2024-01-10T07:55:06;32.90;;;15.20;;
2860;SDS011;1438;50.922;6.704;2024-01-10T07:57:33;31.42;;;13.80;;
2860;SDS011;1438;50.922;6.704;2024-01-10T08:00:00;28.33;;;12.40;;
2860;SDS011;1438;50.922;6.704;2024-01-10T08:02:26;26.77;;;10.88;;
2860;SDS011;1438;50.922;6.704;2024-01-10T08:04:52;19.47;;;11.17;;
2860;SDS011;1438;50.922;6.704;2024-01-10T08:07:18;27.25;;;11.82;;
2860;SDS011;1438;50.922;6.704;2024-01-10T08:09:44;19.95;;;9.80;;
2860;SDS011;1438;50.922;6.704;2024-01-10T08:12:10;24.30;;;12.70;;
2860;SDS011;1438;50.922;6.704;2024-01-10T08:14:39;21.98;;;9.57;;
2860;SDS011;1438;50.922;6.704;2024-01-10T08:17:05;16.10;;;9.35;;
2860;SDS011;1438;50.922;6.704;2024-01-10T08:19:32;15.68;;;11.07;;
2860;SDS011;1438;50.922;6.704;2024-01-10T08:21:58;22.83;;;11.90;;
2860;SDS011;1438;50.922;6.704;2024-01-10T08:24:24;20.85;;;11.02;;
2860;SDS011;1438;50.922;6.704;2024-01-10T08:26:50;22.33;;;10.85;;
2860;SDS011;1438;50.922;6.704;2024-01-10T08:29:19;24.17;;;10.93;;
2860;SDS011;1438;50.922;6.704;2024-01-10T08:31:46;24.23;;;11.60;;
2860;SDS011;1438;50.922;6.704;2024-01-10T08:34:12;20.45;;;10.43;;
2860;SDS011;1438;50.922;6.704;2024-01-10T08:36:38;16.45;;;10.30;;
2860;SDS011;1438;50.922;6.704;2024-01-10T08:39:04;19.23;;;10.50;;
2860;SDS011;1438;50.922;6.704;2024-01-10T08:41:31;31.70;;;11.55;;
2860;SDS011;1438;50.922;6.704;2024-01-10T08:43:57;17.38;;;8.73;;
2860;SDS011;1438;50.922;6.704;2024-01-10T08:46:23;24.75;;;12.00;;
2860;SDS011;1438;50.922;6.704;2024-01-10T08:48:52;21.27;;;12.75;;
2860;SDS011;1438;50.922;6.704;2024-01-10T08:51:18;22.30;;;11.35;;
2860;SDS011;1438;50.922;6.704;2024-01-10T08:53:44;30.42;;;11.85;;
2860;SDS011;1438;50.922;6.704;2024-01-10T08:56:10;22.60;;;11.55;;
2860;SDS011;1438;50.922;6.704;2024-01-10T08:58:36;22.23;;;11.93;;
2860;SDS011;1438;50.922;6.704;2024-01-10T09:01:02;23.60;;;11.13;;
2860;SDS011;1438;50.922;6.704;2024-01-10T09:03:33;23.35;;;11.50;;
2860;SDS011;1438;50.922;6.704;2024-01-10T09:05:59;22.58;;;12.05;;
2860;SDS011;1438;50.922;6.704;2024-01-10T09:08:25;22.60;;;11.40;;
2860;SDS011;1438;50.922;6.704;2024-01-10T09:10:51;20.30;;;10.85;;
2860;SDS011;1438;50.922;6.704;2024-01-10T09:13:17;50.22;;;25.23;;
2860;SDS011;1438;50.922;6.704;2024-01-10T09:15:43;28.77;;;13.83;;
2860;SDS011;1438;50.922;6.704;2024-01-10T09:18:09;27.95;;;13.88;;
2860;SDS011;1438;50.922;6.704;2024-01-10T09:20:35;24.40;;;12.15;;
2860;SDS011;1438;50.922;6.704;2024-01-10T09:23:01;24.77;;;11.13;;
2860;SDS011;1438;50.922;6.704;2024-01-10T09:25:27;22.77;;;11.43;;
2860;SDS011;1438;50.922;6.704;2024-01-10T09:27:53;24.30;;;12.60;;
2860;SDS011;1438;50.922;6.704;2024-01-10T09:30:20;21.55;;;13.02;;
2860;SDS011;1438;50.922;6.704;2024-01-10T09:32:46;21.85;;;12.45;;
2860;SDS011;1438;50.922;6.704;2024-01-10T09:35:15;24.35;;;13.85;;
2860;SDS011;1438;50.922;6.704;2024-01-10T09:37:42;24.17;;;13.05;;
2860;SDS011;1438;50.922;6.704;2024-01-10T09:40:10;25.13;;;13.65;;
2860;SDS011;1438;50.922;6.704;2024-01-10T09:42:38;28.80;;;15.07;;
2860;SDS011;1438;50.922;6.704;2024-01-10T09:45:05;28.23;;;14.43;;
2860;SDS011;1438;50.922;6.704;2024-01-10T09:47:31;23.02;;;13.55;;
2860;SDS011;1438;50.922;6.704;2024-01-10T09:49:58;22.05;;;12.15;;
2860;SDS011;1438;50.922;6.704;2024-01-10T09:52:25;28.88;;;16.20;;
2860;SDS011;1438;50.922;6.704;2024-01-10T09:54:53;25.20;;;13.48;;
2860;SDS011;1438;50.922;6.704;2024-01-10T09:57:21;24.75;;;14.27;;
2860;SDS011;1438;50.922;6.704;2024-01-10T09:59:48;21.25;;;14.10;;
2860;SDS011;1438;50.922;6.704;2024-01-10T10:02:16;24.88;;;14.88;;
2860;SDS011;1438;50.922;6.704;2024-01-10T10:04:43;22.65;;;14.25;;
2860;SDS011;1438;50.922;6.704;2024-01-10T10:07:11;24.90;;;13.45;;
2860;SDS011;1438;50.922;6.704;2024-01-10T10:09:37;23.00;;;13.10;;
2860;SDS011;1438;50.922;6.704;2024-01-10T10:12:03;27.67;;;14.90;;
2860;SDS011;1438;50.922;6.704;2024-01-10T10:14:29;21.60;;;13.57;;
2860;SDS011;1438;50.922;6.704;2024-01-10T10:16:56;42.95;;;24.42;;
2860;SDS011;1438;50.922;6.704;2024-01-10T10:19:22;28.40;;;16.02;;
2860;SDS011;1438;50.922;6.704;2024-01-10T10:21:48;31.02;;;18.85;;
2860;SDS011;1438;50.922;6.704;2024-01-10T10:24:14;32.63;;;16.17;;
2860;SDS011;1438;50.922;6.704;2024-01-10T10:26:40;28.67;;;16.98;;
2860;SDS011;1438;50.922;6.704;2024-01-10T10:29:06;30.45;;;15.90;;
2860;SDS011;1438;50.922;6.704;2024-01-10T10:31:32;27.27;;;14.45;;
2860;SDS011;1438;50.922;6.704;2024-01-10T10:34:02;28.95;;;14.15;;
2860;SDS011;1438;50.922;6.704;2024-01-10T10:36:30;26.20;;;14.32;;
2860;SDS011;1438;50.922;6.704;2024-01-10T10:38:58;31.00;;;15.30;;
2860;SDS011;1438;50.922;6.704;2024-01-10T10:41:27;30.50;;;14.00;;
2860;SDS011;1438;50.922;6.704;2024-01-10T10:43:55;35.58;;;14.27;;
2860;SDS011;1438;50.922;6.704;2024-01-10T10:46:21;27.48;;;14.70;;
2860;SDS011;1438;50.922;6.704;2024-01-10T10:48:49;25.50;;;13.90;;
2860;SDS011;1438;50.922;6.704;2024-01-10T10:51:19;23.88;;;12.27;;
2860;SDS011;1438;50.922;6.704;2024-01-10T10:53:50;24.23;;;11.43;;
2860;SDS011;1438;50.922;6.704;2024-01-10T10:56:17;20.58;;;11.55;;
2860;SDS011;1438;50.922;6.704;2024-01-10T10:58:43;18.85;;;10.60;;
2860;SDS011;1438;50.922;6.704;2024-01-10T11:01:10;19.02;;;10.85;;
2860;SDS011;1438;50.922;6.704;2024-01-10T11:03:37;18.55;;;10.75;;
2860;SDS011;1438;50.922;6.704;2024-01-10T11:06:05;20.92;;;11.35;;
2860;SDS011;1438;50.922;6.704;2024-01-10T11:08:35;18.75;;;10.95;;
2860;SDS011;1438;50.922;6.704;2024-01-10T11:11:02;19.55;;;10.40;;
2860;SDS011;1438;50.922;6.704;2024-01-10T11:18:43;19.30;;;11.60;;
2860;SDS011;1438;50.922;6.704;2024-01-10T11:23:43;17.83;;;10.75;;
2860;SDS011;1438;50.922;6.704;2024-01-10T11:26:10;20.55;;;10.80;;
2860;SDS011;1438;50.922;6.704;2024-01-10T11:28:38;17.63;;;10.07;;
2860;SDS011;1438;50.922;6.704;2024-01-10T11:31:05;19.40;;;11.20;;
2860;SDS011;1438;50.922;6.704;2024-01-10T11:33:32;26.83;;;11.75;;
2860;SDS011;1438;50.922;6.704;2024-01-10T11:38:43;17.60;;;10.05;;
2860;SDS011;1438;50.922;6.704;2024-01-10T11:41:10;19.13;;;10.65;;
2860;SDS011;1438;50.922;6.704;2024-01-10T11:43:36;20.98;;;11.30;;
2860;SDS011;1438;50.922;6.704;2024-01-10T11:46:02;18.23;;;10.18;;
2860;SDS011;1438;50.922;6.704;2024-01-10T11:48:30;18.98;;;10.45;;
2860;SDS011;1438;50.922;6.704;2024-01-10T11:50:57;17.13;;;10.30;;
2860;SDS011;1438;50.922;6.704;2024-01-10T11:53:42;18.30;;;10.15;;
2860;SDS011;1438;50.922;6.704;2024-01-10T11:56:14;17.48;;;9.85;;
2860;SDS011;1438;50.922;6.704;2024-01-10T11:58:53;21.63;;;11.32;;
2860;SDS011;1438;50.922;6.704;2024-01-10T12:01:20;18.88;;;9.82;;
2860;SDS011;1438;50.922;6.704;2024-01-10T12:03:46;17.88;;;9.98;;
2860;SDS011;1438;50.922;6.704;2024-01-10T12:06:14;21.30;;;11.25;;
2860;SDS011;1438;50.922;6.704;2024-01-10T12:08:40;18.40;;;10.48;;
2860;SDS011;1438;50.922;6.704;2024-01-10T12:11:06;18.77;;;9.88;;
2860;SDS011;1438;50.922;6.704;2024-01-10T12:13:33;17.13;;;10.60;;
2860;SDS011;1438;50.922;6.704;2024-01-10T12:15:59;22.88;;;10.65;;
2860;SDS011;1438;50.922;6.704;2024-01-10T12:18:25;24.48;;;11.65;;
2860;SDS011;1438;50.922;6.704;2024-01-10T12:20:51;24.08;;;11.65;;
2860;SDS011;1438;50.922;6.704;2024-01-10T12:23:17;24.50;;;10.93;;
2860;SDS011;1438;50.922;6.704;2024-01-10T12:25:43;19.13;;;10.20;;
2860;SDS011;1438;50.922;6.704;2024-01-10T12:28:09;22.27;;;11.80;;
2860;SDS011;1438;50.922;6.704;2024-01-10T12:30:35;22.17;;;11.57;;
2860;SDS011;1438;50.922;6.704;2024-01-10T12:33:01;22.00;;;11.20;;
2860;SDS011;1438;50.922;6.704;2024-01-10T12:35:27;20.63;;;10.73;;
2860;SDS011;1438;50.922;6.704;2024-01-10T12:37:56;22.40;;;11.93;;
2860;SDS011;1438;50.922;6.704;2024-01-10T12:40:22;21.30;;;11.68;;
2860;SDS011;1438;50.922;6.704;2024-01-10T12:42:48;23.48;;;11.90;;
2860;SDS011;1438;50.922;6.704;2024-01-10T12:45:21;22.25;;;12.55;;
2860;SDS011;1438;50.922;6.704;2024-01-10T12:47:47;23.50;;;11.73;;
2860;SDS011;1438;50.922;6.704;2024-01-10T12:50:13;20.13;;;11.73;;
2860;SDS011;1438;50.922;6.704;2024-01-10T12:52:42;19.40;;;11.10;;
2860;SDS011;1438;50.922;6.704;2024-01-10T12:55:09;23.58;;;11.73;;
2860;SDS011;1438;50.922;6.704;2024-01-10T12:57:35;17.30;;;11.00;;
2860;SDS011;1438;50.922;6.704;2024-01-10T13:00:01;23.83;;;12.45;;
2860;SDS011;1438;50.922;6.704;2024-01-10T13:02:31;20.80;;;12.10;;
2860;SDS011;1438;50.922;6.704;2024-01-10T13:05:00;21.70;;;11.48;;
2860;SDS011;1438;50.922;6.704;2024-01-10T13:07:26;23.10;;;12.07;;
2860;SDS011;1438;50.922;6.704;2024-01-10T13:09:55;24.30;;;11.80;;
2860;SDS011;1438;50.922;6.704;2024-01-10T13:12:21;20.80;;;11.40;;
2860;SDS011;1438;50.922;6.704;2024-01-10T13:14:47;19.67;;;12.10;;
2860;SDS011;1438;50.922;6.704;2024-01-10T13:17:13;18.03;;;11.03;;
2860;SDS011;1438;50.922;6.704;2024-01-10T13:19:39;18.97;;;10.83;;
2860;SDS011;1438;50.922;6.704;2024-01-10T13:22:05;18.40;;;11.23;;
2860;SDS011;1438;50.922;6.704;2024-01-10T13:24:31;25.50;;;12.53;;
2860;SDS011;1438;50.922;6.704;2024-01-10T13:26:58;25.65;;;12.82;;
2860;SDS011;1438;50.922;6.704;2024-01-10T13:29:24;21.60;;;12.70;;
2860;SDS011;1438;50.922;6.704;2024-01-10T13:31:49;21.43;;;12.40;;
2860;SDS011;1438;50.922;6.704;2024-01-10T13:34:16;16.88;;;10.40;;
2860;SDS011;1438;50.922;6.704;2024-01-10T13:36:42;25.30;;;11.70;;
2860;SDS011;1438;50.922;6.704;2024-01-10T13:39:08;26.60;;;12.07;;
2860;SDS011;1438;50.922;6.704;2024-01-10T13:41:35;23.85;;;12.90;;
2860;SDS011;1438;50.922;6.704;2024-01-10T13:44:01;22.20;;;12.30;;
2860;SDS011;1438;50.922;6.704;2024-01-10T13:46:27;23.42;;;13.15;;
2860;SDS011;1438;50.922;6.704;2024-01-10T13:48:53;19.50;;;12.97;;
2860;SDS011;1438;50.922;6.704;2024-01-10T13:51:19;20.77;;;11.60;;
2860;SDS011;1438;50.922;6.704;2024-01-10T13:53:46;25.25;;;12.25;;
2860;SDS011;1438;50.922;6.704;2024-01-10T13:56:12;18.10;;;11.10;;
2860;SDS011;1438;50.922;6.704;2024-01-10T13:58:38;19.23;;;11.10;;
2860;SDS011;1438;50.922;6.704;2024-01-10T14:01:03;21.43;;;12.27;;
2860;SDS011;1438;50.922;6.704;2024-01-10T14:03:29;18.08;;;9.80;;
2860;SDS011;1438;50.922;6.704;2024-01-10T14:05:56;19.33;;;11.70;;
2860;SDS011;1438;50.922;6.704;2024-01-10T14:08:21;18.13;;;10.77;;
2860;SDS011;1438;50.922;6.704;2024-01-10T14:10:47;17.57;;;10.33;;
2860;SDS011;1438;50.922;6.704;2024-01-10T14:13:13;23.43;;;10.67;;
2860;SDS011;1438;50.922;6.704;2024-01-10T14:15:39;17.53;;;11.03;;
2860;SDS011;1438;50.922;6.704;2024-01-10T14:18:07;16.73;;;11.32;;
2860;SDS011;1438;50.922;6.704;2024-01-10T14:20:33;20.25;;;11.52;;
2860;SDS011;1438;50.922;6.704;2024-01-10T14:23:00;18.40;;;11.02;;
2860;SDS011;1438;50.922;6.704;2024-01-10T14:25:26;18.00;;;11.10;;
2860;SDS011;1438;50.922;6.704;2024-01-10T14:27:53;18.63;;;10.98;;
2860;SDS011;1438;50.922;6.704;2024-01-10T14:30:19;19.95;;;10.73;;
2860;SDS011;1438;50.922;6.704;2024-01-10T14:32:46;17.98;;;11.40;;
2860;SDS011;1438;50.922;6.704;2024-01-10T14:35:12;20.05;;;12.48;;
2860;SDS011;1438;50.922;6.704;2024-01-10T14:37:38;18.10;;;11.13;;
2860;SDS011;1438;50.922;6.704;2024-01-10T14:40:04;17.15;;;10.35;;
2860;SDS011;1438;50.922;6.704;2024-01-10T14:42:31;18.05;;;10.90;;
2860;SDS011;1438;50.922;6.704;2024-01-10T14:44:58;24.85;;;12.25;;
2860;SDS011;1438;50.922;6.704;2024-01-10T14:47:24;22.98;;;13.35;;
2860;SDS011;1438;50.922;6.704;2024-01-10T14:49:50;22.30;;;12.35;;
2860;SDS011;1438;50.922;6.704;2024-01-10T14:52:16;17.52;;;11.00;;
2860;SDS011;1438;50.922;6.704;2024-01-10T14:54:41;21.47;;;11.43;;
2860;SDS011;1438;50.922;6.704;2024-01-10T14:57:07;21.60;;;11.20;;
2860;SDS011;1438;50.922;6.704;2024-01-10T14:59:33;20.13;;;11.25;;
2860;SDS011;1438;50.922;6.704;2024-01-10T15:02:02;22.48;;;11.43;;